createdAt,value
2017-11-21T15:08:39.467Z,100457
2017-11-21T15:11:07.643Z,100435
2017-11-21T15:13:35.703Z,100435
2017-11-21T15:16:03.782Z,100431
2017-11-21T15:18:31.849Z,100423
2017-11-21T15:20:59.936Z,100424
2017-11-21T15:23:28.781Z,100426
2017-11-21T15:25:56.864Z,100418
2017-11-21T15:28:24.950Z,100431
2017-11-21T15:30:53.035Z,100429
2017-11-21T15:33:21.909Z,100429
2017-11-21T15:35:49.988Z,100423
2017-11-21T15:38:18.057Z,100414
2017-11-21T15:40:46.249Z,100426
2017-11-21T15:43:15.076Z,100421
2017-11-21T15:45:44.100Z,100423
2017-11-21T15:48:12.184Z,100421
2017-11-21T15:50:40.262Z,100425
2017-11-21T15:53:08.364Z,100420
2017-11-21T15:55:36.502Z,100416
2017-11-21T15:58:04.565Z,100422
2017-11-21T16:00:32.696Z,100420
2017-11-21T16:03:01.187Z,100424
2017-11-21T16:05:29.288Z,100417
2017-11-21T16:07:58.099Z,100420
2017-11-21T16:10:26.937Z,100428
2017-11-21T16:12:55.007Z,100421
2017-11-21T16:15:23.088Z,100418
2017-11-21T16:17:51.158Z,100432
2017-11-21T16:20:19.308Z,100434
2017-11-21T16:22:47.375Z,100426
2017-11-21T16:25:15.444Z,100430
2017-11-21T16:27:43.518Z,100439
2017-11-21T16:30:11.792Z,100437
2017-11-21T16:32:39.868Z,100433
2017-11-21T16:35:07.955Z,100438
2017-11-21T16:37:36.053Z,100435
2017-11-21T16:40:04.120Z,100436
2017-11-21T16:42:32.320Z,100437
2017-11-21T16:45:01.180Z,100431
2017-11-21T16:47:29.251Z,100434
2017-11-21T16:49:57.335Z,100440
2017-11-21T16:52:26.174Z,100431
2017-11-21T16:54:54.247Z,100432
2017-11-21T16:57:22.424Z,100431
2017-11-21T16:59:50.548Z,100434
2017-11-21T17:02:19.388Z,100436
2017-11-21T17:04:47.467Z,100442
2017-11-21T17:07:15.561Z,100428
2017-11-21T17:09:43.647Z,100420
2017-11-21T17:12:12.488Z,100419
2017-11-21T17:14:40.563Z,100418
2017-11-21T17:17:08.657Z,100423
2017-11-21T17:19:36.841Z,100429
2017-11-21T17:22:04.912Z,100429
2017-11-21T17:24:33.751Z,100422
2017-11-21T17:27:01.829Z,100421
2017-11-21T17:29:29.907Z,100425
2017-11-21T17:31:57.985Z,100416
2017-11-21T17:34:26.050Z,100417
2017-11-21T17:36:54.139Z,100413
2017-11-21T17:39:23.136Z,100415
2017-11-21T17:41:51.211Z,100429
2017-11-21T17:44:19.280Z,100420
2017-11-21T17:46:47.357Z,100420
2017-11-21T17:49:15.416Z,100428
2017-11-21T17:51:43.509Z,100410
2017-11-21T17:54:12.367Z,100422
2017-11-21T17:56:40.712Z,100417
2017-11-21T17:59:08.782Z,100423
2017-11-21T18:01:36.892Z,100420
2017-11-21T18:04:04.961Z,100413
2017-11-21T18:06:33.032Z,100416
2017-11-21T18:09:01.119Z,100408
2017-11-21T18:11:29.275Z,100402
2017-11-21T18:13:57.451Z,100405
2017-11-21T18:16:25.609Z,100391
2017-11-21T18:18:53.665Z,100389
2017-11-21T18:21:21.762Z,100389
2017-11-21T18:23:49.835Z,100394
2017-11-21T18:26:18.010Z,100392
2017-11-21T18:28:46.086Z,100395
2017-11-21T18:31:15.044Z,100389
2017-11-21T18:33:43.152Z,100388
2017-11-21T18:36:11.994Z,100386
2017-11-21T18:38:40.214Z,100390
2017-11-21T18:41:09.056Z,100395
2017-11-21T18:43:37.164Z,100391
2017-11-21T18:46:05.348Z,100391
2017-11-21T18:48:33.423Z,100387
2017-11-21T18:51:02.271Z,100385
2017-11-21T18:53:30.344Z,100374
2017-11-21T18:55:58.720Z,100383
2017-11-21T18:58:27.300Z,100368
2017-11-21T19:00:55.383Z,100379
2017-11-21T19:03:23.470Z,100382
2017-11-21T19:05:51.553Z,100377
2017-11-21T19:08:20.453Z,100380
2017-11-21T19:10:49.300Z,100378
2017-11-21T19:13:17.377Z,100381
2017-11-21T19:15:45.492Z,100380
2017-11-21T19:18:14.377Z,100375
2017-11-21T19:20:43.279Z,100369
2017-11-21T19:23:11.352Z,100372
2017-11-21T19:25:39.437Z,100364
2017-11-21T19:28:07.558Z,100366
2017-11-21T19:30:35.648Z,100367
2017-11-21T19:33:03.696Z,100367
2017-11-21T19:35:31.864Z,100370
2017-11-21T19:38:00.058Z,100367
2017-11-21T19:40:28.929Z,100368
2017-11-21T19:42:57.004Z,100368
2017-11-21T19:45:25.075Z,100361
2017-11-21T19:47:53.179Z,100366
2017-11-21T19:50:22.147Z,100360
2017-11-21T19:52:51.001Z,100360
2017-11-21T19:55:19.078Z,100356
2017-11-21T19:57:47.167Z,100366
2017-11-21T20:00:15.241Z,100361
2017-11-21T20:02:43.335Z,100359
2017-11-21T20:05:12.197Z,100352
2017-11-21T20:07:40.259Z,100349
2017-11-21T20:10:08.340Z,100353
2017-11-21T20:12:36.672Z,100352
2017-11-21T20:15:04.793Z,100349
2017-11-21T20:17:32.865Z,100352
2017-11-21T20:20:00.936Z,100358
2017-11-21T20:22:29.776Z,100354
2017-11-21T20:24:57.855Z,100361
2017-11-21T20:27:25.925Z,100367
2017-11-21T20:29:54.037Z,100359
2017-11-21T20:32:22.116Z,100359
2017-11-21T20:34:51.905Z,100352
2017-11-21T20:37:20.004Z,100364
2017-11-21T20:39:48.147Z,100361
2017-11-21T20:42:16.223Z,100365
2017-11-21T20:44:44.297Z,100373
2017-11-21T20:47:12.469Z,100370
2017-11-21T20:49:40.545Z,100358
2017-11-21T20:52:08.628Z,100356
2017-11-21T20:54:37.465Z,100352
2017-11-21T20:57:05.561Z,100358
2017-11-21T20:59:33.731Z,100342
2017-11-21T21:02:01.820Z,100335
2017-11-21T21:04:29.890Z,100342
2017-11-21T21:06:57.965Z,100344
2017-11-21T21:09:26.827Z,100335
2017-11-21T21:11:54.916Z,100331
2017-11-21T21:14:22.988Z,100333
2017-11-21T21:16:51.081Z,100338
2017-11-21T21:19:19.921Z,100335
2017-11-21T21:21:48.017Z,100340
2017-11-21T21:24:16.083Z,100336
2017-11-21T21:26:44.152Z,100336
2017-11-21T21:29:12.271Z,100331
2017-11-21T21:31:40.989Z,100324
2017-11-21T21:34:09.079Z,100316
2017-11-21T21:36:37.201Z,100319
2017-11-21T21:39:05.312Z,100325
2017-11-21T21:41:33.382Z,100318
2017-11-21T21:44:01.475Z,100325
2017-11-21T21:46:30.348Z,100315
2017-11-21T21:48:58.423Z,100323
2017-11-21T21:51:26.918Z,100320
2017-11-21T21:53:55.787Z,100318
2017-11-21T21:56:24.536Z,100310
2017-11-21T21:58:52.620Z,100308
2017-11-21T22:01:20.688Z,100309
2017-11-21T22:03:48.759Z,100306
2017-11-21T22:06:16.843Z,100306
2017-11-21T22:08:44.930Z,100312
2017-11-21T22:11:13.110Z,100310
2017-11-21T22:13:41.184Z,100322
2017-11-21T22:16:09.271Z,100314
2017-11-21T22:18:38.138Z,100331
2017-11-21T22:21:06.620Z,100324
2017-11-21T22:23:34.724Z,100315
2017-11-21T22:26:02.815Z,100304
2017-11-21T22:28:30.892Z,100313
2017-11-21T22:30:59.377Z,100310
2017-11-21T22:33:27.447Z,100309
2017-11-21T22:35:55.540Z,100301
2017-11-21T22:38:23.612Z,100293
2017-11-21T22:40:51.792Z,100291
2017-11-21T22:43:19.892Z,100294
2017-11-21T22:45:48.752Z,100295
2017-11-21T22:48:16.933Z,100289
2017-11-21T22:50:45.021Z,100287
2017-11-21T22:53:13.861Z,100282
2017-11-21T22:55:41.919Z,100294
2017-11-21T22:58:10.448Z,100299
2017-11-21T23:00:39.327Z,100293
2017-11-21T23:03:07.395Z,100288
2017-11-21T23:05:35.472Z,100285
2017-11-21T23:08:03.567Z,100283
2017-11-21T23:10:33.311Z,100276
2017-11-21T23:13:01.407Z,100268
2017-11-21T23:15:29.480Z,100276
2017-11-21T23:17:57.559Z,100278
2017-11-21T23:20:25.614Z,100275
2017-11-21T23:22:53.680Z,100279
2017-11-21T23:25:21.862Z,100278
2017-11-21T23:27:49.931Z,100279
2017-11-21T23:30:18.012Z,100275
2017-11-21T23:32:46.081Z,100271
2017-11-21T23:35:14.144Z,100272
2017-11-21T23:37:42.221Z,100265
2017-11-21T23:40:10.401Z,100266
2017-11-21T23:42:38.467Z,100267
2017-11-21T23:45:07.255Z,100266
2017-11-21T23:47:35.326Z,100255
2017-11-21T23:50:03.409Z,100248
2017-11-21T23:52:31.473Z,100250
2017-11-21T23:54:59.540Z,100234
2017-11-21T23:57:27.611Z,100237
2017-11-21T23:59:56.415Z,100234
